Bewolking Meer informatie Parkstad Weather Satellite


Neerslagradar Meer informatie Parkstad Rain Snow Radar


Onweersbuien Meer informatie Parkstad Lighntning


24/7 Weercamera Meer informatie Parkstad Weathercam


Natuurbrandrisico
CBI






Het weer levert geen direct gevaar op in Parkstad.    Er zijn geen waarschuwingen afgegeven voor Parkstad (045)

METAR rapporten vliegvelden

   
EHAM - Amsterdam
Gewijzigd: 04-12-2021 17:55
Gedeeltelijk bewolkt  
Gedeeltelijk bewolkt  
   Wind: Westen 18.5 km/h
Wind: Westen 18.5 km/h
Temperatuur: 5°C
Voelt als: 1°C
Dauwpunt: 3°C
Vochtigheid: 87%
Barometer: 994 hPa
Satelliet beelden: Gedeeltelijk bewolkt
Zicht: meer dan 10 km
Bewolking: Licht bewolkt 610 m,
Gedeeltelijk bewolkt 1250 m
EHAM 041655Z 27010KT 250V310 9999 FEW020TCU SCT041 05/03 Q0994 NOSIG
EBAW - Antwerpen
Gewijzigd: 04-12-2021 18:20
Grotendeels bewolkt  
Grotendeels bewolkt  
   Wind: Westen 16.7 km/h
Wind: Westen 16.7 km/h
Temperatuur: 5°C
Voelt als: 2°C
Dauwpunt: 2°C
Vochtigheid: 81%
Barometer: 998 hPa
Satelliet beelden: Grotendeels bewolkt
Zicht: meer dan 10 km
Bewolking: Grotendeels bewolkt 762 m
EBAW 041720Z 26009KT 9999 BKN025 05/02 Q0998 NOSIG
EGLL - London
Gewijzigd: 04-12-2021 18:20
Helder  
Helder  
   Wind: Westen 27.8 km/h
Wind: Westen 27.8 km/h
Temperatuur: 6°C
Voelt als: 2°C
Dauwpunt: 0°C
Vochtigheid: 66%
Barometer: 998 hPa
Satelliet beelden: Helder
Zicht: meer dan 10 km
Bewolking: Helder
EGLL 041720Z AUTO 26015KT 9999 NCD 06/00 Q0998
ELLX - Luxemburg
Gewijzigd: 04-12-2021 18:20
Licht bewolkt  
Licht bewolkt  
   Wind: Westen 22.2 km/h
Wind: Westen 22.2 km/h
Temperatuur: 3°C
Voelt als: -2°C
Dauwpunt: 1°C
Vochtigheid: 87%
Barometer: 999 hPa
Satelliet beelden: Licht bewolkt
Zicht: meer dan 10 km
Bewolking: Licht bewolkt 427 m
ELLX 041720Z 27012KT 9999 FEW014 03/01 Q0999 NOSIG
EDDM - München
Gewijzigd: 04-12-2021 18:20
Wat regen mogelijk, Grotendeels bewolkt  
Wat regen mogelijk, Grotendeels bewolkt  
   Wind: WZW 25.9 km/h
Wind: WZW 25.9 km/h
Temperatuur: 7°C
Voelt als: 3°C
Dauwpunt: 5°C
Vochtigheid: 87%
Barometer: 998 hPa
Satelliet beelden: Grotendeels bewolkt
Zicht: meer dan 10 km
Bewolking: Licht bewolkt 579 m,
Grotendeels bewolkt 1219 m
EDDM 041720Z 24014KT 9999 -RA FEW019 BKN040 07/05 Q0998 TEMPO RA
LFPO - Parijs
Gewijzigd: 04-12-2021 18:00
Kleine regenbuien, Neerslag, Gedeeltelijk bewolkt  
Kleine regenbuien, Neerslag, Gedeeltelijk bewolkt  
   Wind: WNW 31.5 km/h<br />Gust to 31.5 km/h
Wind: WNW 31.5 km/h
Gust to 31.5 km/h
Temperatuur: 6°C
Voelt als: 1°C
Dauwpunt: 2°C
Vochtigheid: 76%
Barometer: 1004 hPa
Satelliet beelden: Gedeeltelijk bewolkt
Zicht: meer dan 10 km
Bewolking: Licht bewolkt 1219 m,
Licht bewolkt 1311 m,
Gedeeltelijk bewolkt 3048 m
LFPO 041700Z 30017G30KT 9999 -SHRA FEW040 FEW043CB SCT100 06/02 Q1004 NOSIG
EDDL - Düsseldorf
Gewijzigd: 04-12-2021 18:20
Wat regen mogelijk, Motregen, Grotendeels bewolkt  
Wat regen mogelijk, Motregen, Grotendeels bewolkt  
   Wind: Westen 20.4 km/h
Wind: Westen 20.4 km/h
Temperatuur: 5°C
Voelt als: 1°C
Dauwpunt: 5°C
Vochtigheid: 100%
Barometer: 996 hPa
Satelliet beelden: Grotendeels bewolkt
Zicht: meer dan 10 km
Bewolking: Licht bewolkt 244 m,
Grotendeels bewolkt 335 m,
Grotendeels bewolkt 610 m
EDDL 041720Z 26011KT 9999 -RADZ FEW008 BKN011 BKN020 05/05 Q0996 TEMPO BKN008
EDDK - Köln/Bonn Duitsland
Gewijzigd: 04-12-2021 18:20
Lichte (mot)regen, Grotendeels bewolkt  
Lichte (mot)regen, Grotendeels bewolkt  
   Wind: WZW 14.8 km/h
Wind: WZW 14.8 km/h
Temperatuur: 4°C
Voelt als: 1°C
Dauwpunt: 4°C
Vochtigheid: 100%
Barometer: 996 hPa
Satelliet beelden: Grotendeels bewolkt
Zicht: meer dan 10 km
Bewolking: Licht bewolkt 152 m,
Gedeeltelijk bewolkt 244 m,
Grotendeels bewolkt 366 m
EDDK 041720Z 25008KT 9999 -DZ FEW005 SCT008 BKN012 04/04 Q0996 NOSIG
TNCA - Oranjestad Aruba
Gewijzigd: 04-12-2021 18:00
Gedeeltelijk bewolkt  
Gedeeltelijk bewolkt  
   Wind: Oosten 29.6 km/h
Wind: Oosten 29.6 km/h
Temperatuur: 30°C
Gevoelstemperatuur: 35°C
Dauwpunt: 24°C
Vochtigheid: 70%
Barometer: 1013 hPa
Satelliet beelden: Gedeeltelijk bewolkt
Zicht: meer dan 10 km
Bewolking: Gedeeltelijk bewolkt 610 m
TNCA 041700Z 10016KT 9999 SCT020 30/24 Q1013 NOSIG
TNCC - Willemstad Curacao
Gewijzigd: 04-12-2021 18:00
Gedeeltelijk bewolkt  
Gedeeltelijk bewolkt  
   Wind: Oosten 20.4 km/h
Wind: Oosten 20.4 km/h
Temperatuur: 29°C
Gevoelstemperatuur: 33°C
Dauwpunt: 24°C
Vochtigheid: 74%
Barometer: 1013 hPa
Satelliet beelden: Gedeeltelijk bewolkt
Zicht: meer dan 10 km
Bewolking: Gedeeltelijk bewolkt 701 m
TNCC 041700Z 09011KT 9999 SCT023 29/24 Q1013 NOSIG
LEAL - La Nucia Spanje
Gewijzigd: 04-12-2021 18:30
Helder  
Helder  
   Wind: WNW 31.5 km/h
Wind: WNW 31.5 km/h
Temperatuur: 17°C
Dauwpunt: 6°C
Vochtigheid: 49%
Barometer: 1018 hPa
Zicht: meer dan 10 km
Bewolking: Helder
LEAL 041730Z 29017KT CAVOK 17/06 Q1018 NOSIG
 

Script ontwikkeld door  Saratoga-weather.org Aangepast voor de template door  Weerstation Leuven

U vindt ons ook hier:

Het Weer Aktueel

WOW Nederland KNMI

Vereniging voor Weerkunde en Klimatologie

UK Met Office Weather Observation Website (WOW)

WeatherCloud

Weather Underground

Awekas

MeteoMap.Cloud

HAMweather, WeatherForYou, PWS Weather

Citizen Weather Observer Program (CWOP)

Apparatuur in gebruik:

Hardwareleverancier
Weerhuisje

Weerstation
Vantage Pro2+ UV

Weercomputer's
alix3d2 & wl330n

Weerprogramma's
Smartbedded

Satelliet NOAA's
WRX137 & KX137

Satelliet Eumetsat
Ayecka SR1 & Triax

Bliksemdetectie
Boltek StormTracker

Webleverancier
F-Service

Weerhuisje

Vantage Pro2+ UV

alix3d2 & wl330n

Smartbedded

WRX137 & KX137

Ayecka SR1 & Triax

Boltek StormTracker

F-Service